sensor_id;sensor_type;location;lat;lon;timestamp;pressure;altitude;pressure_sealevel;temperature;humidity
78679;BME280;67994;59.334;13.528;2024-02-15T00:00:01;101200.0;;;4.7;77.5
78679;BME280;67994;59.334;13.528;2024-02-15T00:01:01;101100.0;;;4.7;77.5
78679;BME280;67994;59.334;13.528;2024-02-15T00:02:00;101100.0;;;4.4;78.5
78679;BME280;67994;59.334;13.528;2024-02-15T00:03:01;101200.0;;;4.4;78.6
78679;BME280;67994;59.334;13.528;2024-02-15T00:04:00;101100.0;;;4.4;78.8
78679;BME280;67994;59.334;13.528;2024-02-15T00:05:01;101200.0;;;4.6;78.2
78679;BME280;67994;59.334;13.528;2024-02-15T00:06:01;101200.0;;;4.7;77.5
78679;BME280;67994;59.334;13.528;2024-02-15T00:07:00;101200.0;;;4.6;77.9
78679;BME280;67994;59.334;13.528;2024-02-15T00:08:01;101200.0;;;4.7;77.4
78679;BME280;67994;59.334;13.528;2024-02-15T00:09:01;101200.0;;;4.7;77.3
78679;BME280;67994;59.334;13.528;2024-02-15T00:10:01;101200.0;;;4.7;77.2
78679;BME280;67994;59.334;13.528;2024-02-15T00:11:01;101200.0;;;4.8;77.1
78679;BME280;67994;59.334;13.528;2024-02-15T00:12:01;101200.0;;;4.6;77.6
78679;BME280;67994;59.334;13.528;2024-02-15T00:13:01;101200.0;;;4.8;77.1
78679;BME280;67994;59.334;13.528;2024-02-15T00:14:01;101200.0;;;4.8;76.8
78679;BME280;67994;59.334;13.528;2024-02-15T00:15:01;101200.0;;;4.6;77.4
78679;BME280;67994;59.334;13.528;2024-02-15T00:16:01;101100.0;;;4.7;77.3
78679;BME280;67994;59.334;13.528;2024-02-15T00:17:01;101100.0;;;4.7;77.3
78679;BME280;67994;59.334;13.528;2024-02-15T00:18:01;101200.0;;;4.6;77.5
78679;BME280;67994;59.334;13.528;2024-02-15T00:19:01;101200.0;;;4.7;77.4
78679;BME280;67994;59.334;13.528;2024-02-15T00:20:01;101200.0;;;4.3;78.3
78679;BME280;67994;59.334;13.528;2024-02-15T00:21:00;101200.0;;;4.2;78.8
78679;BME280;67994;59.334;13.528;2024-02-15T00:22:01;101200.0;;;4.4;78.2
78679;BME280;67994;59.334;13.528;2024-02-15T00:23:01;101200.0;;;4.2;79.0
78679;BME280;67994;59.334;13.528;2024-02-15T00:24:01;101200.0;;;4.1;79.2
78679;BME280;67994;59.334;13.528;2024-02-15T00:25:00;101200.0;;;4.4;78.5
78679;BME280;67994;59.334;13.528;2024-02-15T00:26:01;101200.0;;;4.1;79.0
78679;BME280;67994;59.334;13.528;2024-02-15T00:27:01;101200.0;;;4.0;79.3
78679;BME280;67994;59.334;13.528;2024-02-15T00:28:01;101200.0;;;4.0;79.4
78679;BME280;67994;59.334;13.528;2024-02-15T00:29:01;101200.0;;;4.1;79.4
78679;BME280;67994;59.334;13.528;2024-02-15T00:30:01;101200.0;;;4.3;78.6
78679;BME280;67994;59.334;13.528;2024-02-15T00:31:01;101200.0;;;4.1;79.2
78679;BME280;67994;59.334;13.528;2024-02-15T00:32:01;101200.0;;;4.1;79.2
78679;BME280;67994;59.334;13.528;2024-02-15T00:33:01;101200.0;;;4.3;78.6
78679;BME280;67994;59.334;13.528;2024-02-15T00:34:01;101200.0;;;4.4;78.2
78679;BME280;67994;59.334;13.528;2024-02-15T00:35:00;101200.0;;;4.4;78.2
78679;BME280;67994;59.334;13.528;2024-02-15T00:36:01;101200.0;;;4.5;77.8
78679;BME280;67994;59.334;13.528;2024-02-15T00:37:00;101200.0;;;4.6;77.5
78679;BME280;67994;59.334;13.528;2024-02-15T00:38:01;101200.0;;;4.7;77.3
78679;BME280;67994;59.334;13.528;2024-02-15T00:39:01;101200.0;;;4.7;77.1
78679;BME280;67994;59.334;13.528;2024-02-15T00:40:01;101200.0;;;4.8;76.6
78679;BME280;67994;59.334;13.528;2024-02-15T00:41:01;101200.0;;;4.9;76.5
78679;BME280;67994;59.334;13.528;2024-02-15T00:42:00;101200.0;;;4.5;77.4
78679;BME280;67994;59.334;13.528;2024-02-15T00:43:01;101200.0;;;4.6;77.7
78679;BME280;67994;59.334;13.528;2024-02-15T00:44:01;101200.0;;;4.3;78.2
78679;BME280;67994;59.334;13.528;2024-02-15T00:45:01;101200.0;;;4.0;79.0
78679;BME280;67994;59.334;13.528;2024-02-15T00:46:01;101200.0;;;4.0;79.3
78679;BME280;67994;59.334;13.528;2024-02-15T00:47:01;101200.0;;;4.1;79.0
78679;BME280;67994;59.334;13.528;2024-02-15T00:48:00;101200.0;;;4.0;79.3
78679;BME280;67994;59.334;13.528;2024-02-15T00:49:00;101200.0;;;4.1;79.0
78679;BME280;67994;59.334;13.528;2024-02-15T00:50:00;101200.0;;;3.8;79.8
78679;BME280;67994;59.334;13.528;2024-02-15T00:51:01;101200.0;;;3.9;79.7
78679;BME280;67994;59.334;13.528;2024-02-15T00:52:01;101200.0;;;4.1;79.2
78679;BME280;67994;59.334;13.528;2024-02-15T00:53:01;101200.0;;;4.0;79.6
78679;BME280;67994;59.334;13.528;2024-02-15T00:54:02;101200.0;;;4.0;79.6
78679;BME280;67994;59.334;13.528;2024-02-15T00:55:00;101200.0;;;3.9;79.7
78679;BME280;67994;59.334;13.528;2024-02-15T00:56:01;101200.0;;;3.9;79.8
78679;BME280;67994;59.334;13.528;2024-02-15T00:57:00;101200.0;;;3.9;79.7
78679;BME280;67994;59.334;13.528;2024-02-15T00:58:01;101200.0;;;3.8;80.0
78679;BME280;67994;59.334;13.528;2024-02-15T00:59:01;101200.0;;;3.7;80.4
78679;BME280;67994;59.334;13.528;2024-02-15T01:00:01;101200.0;;;3.8;80.2
78679;BME280;67994;59.334;13.528;2024-02-15T01:01:00;101200.0;;;3.8;80.2
78679;BME280;67994;59.334;13.528;2024-02-15T01:02:01;101200.0;;;3.8;80.2
78679;BME280;67994;59.334;13.528;2024-02-15T01:03:00;101200.0;;;3.8;80.1
78679;BME280;67994;59.334;13.528;2024-02-15T01:04:01;101200.0;;;3.9;80.0
78679;BME280;67994;59.334;13.528;2024-02-15T01:05:01;101200.0;;;4.1;79.4
78679;BME280;67994;59.334;13.528;2024-02-15T01:06:02;101200.0;;;4.2;78.8
78679;BME280;67994;59.334;13.528;2024-02-15T01:07:01;101200.0;;;4.1;79.2
78679;BME280;67994;59.334;13.528;2024-02-15T01:08:01;101200.0;;;4.0;79.2
78679;BME280;67994;59.334;13.528;2024-02-15T01:09:01;101200.0;;;3.8;79.9
78679;BME280;67994;59.334;13.528;2024-02-15T01:10:01;101200.0;;;3.9;79.9
78679;BME280;67994;59.334;13.528;2024-02-15T01:11:01;101200.0;;;4.2;79.3
78679;BME280;67994;59.334;13.528;2024-02-15T01:12:00;101200.0;;;3.9;80.1
78679;BME280;67994;59.334;13.528;2024-02-15T01:13:01;101200.0;;;4.0;79.7
78679;BME280;67994;59.334;13.528;2024-02-15T01:14:01;101200.0;;;4.0;79.7
78679;BME280;67994;59.334;13.528;2024-02-15T01:15:01;101200.0;;;4.0;79.7
78679;BME280;67994;59.334;13.528;2024-02-15T01:16:01;101200.0;;;3.9;80.0
78679;BME280;67994;59.334;13.528;2024-02-15T01:17:00;101200.0;;;3.9;80.2
78679;BME280;67994;59.334;13.528;2024-02-15T01:18:00;101200.0;;;3.8;80.6
78679;BME280;67994;59.334;13.528;2024-02-15T01:19:00;101200.0;;;3.8;81.0
78679;BME280;67994;59.334;13.528;2024-02-15T01:20:01;101200.0;;;3.7;80.9
78679;BME280;67994;59.334;13.528;2024-02-15T01:21:01;101200.0;;;3.9;80.5
78679;BME280;67994;59.334;13.528;2024-02-15T01:22:00;101200.0;;;4.0;80.1
78679;BME280;67994;59.334;13.528;2024-02-15T01:23:01;101200.0;;;4.0;79.9
78679;BME280;67994;59.334;13.528;2024-02-15T01:24:04;101200.0;;;4.0;80.1
78679;BME280;67994;59.334;13.528;2024-02-15T01:25:01;101200.0;;;4.0;79.8
78679;BME280;67994;59.334;13.528;2024-02-15T01:26:01;101200.0;;;4.1;79.6
78679;BME280;67994;59.334;13.528;2024-02-15T01:27:00;101200.0;;;4.2;79.5
78679;BME280;67994;59.334;13.528;2024-02-15T01:28:00;101200.0;;;4.3;78.8
78679;BME280;67994;59.334;13.528;2024-02-15T01:29:01;101100.0;;;4.3;79.0
78679;BME280;67994;59.334;13.528;2024-02-15T01:30:01;101200.0;;;4.1;79.5
78679;BME280;67994;59.334;13.528;2024-02-15T01:31:01;101200.0;;;3.9;80.4
78679;BME280;67994;59.334;13.528;2024-02-15T01:32:01;101200.0;;;3.9;80.1
78679;BME280;67994;59.334;13.528;2024-02-15T01:33:01;101200.0;;;4.0;80.0
78679;BME280;67994;59.334;13.528;2024-02-15T01:34:00;101200.0;;;4.0;79.8
78679;BME280;67994;59.334;13.528;2024-02-15T01:35:02;101200.0;;;4.1;79.6
78679;BME280;67994;59.334;13.528;2024-02-15T01:36:00;101200.0;;;4.1;79.3
78679;BME280;67994;59.334;13.528;2024-02-15T01:37:01;101200.0;;;4.2;79.4
78679;BME280;67994;59.334;13.528;2024-02-15T01:38:00;101200.0;;;4.5;78.5
78679;BME280;67994;59.334;13.528;2024-02-15T01:39:00;101200.0;;;4.4;78.1
78679;BME280;67994;59.334;13.528;2024-02-15T01:40:00;101200.0;;;4.6;77.8
78679;BME280;67994;59.334;13.528;2024-02-15T01:41:00;101200.0;;;4.5;78.1
78679;BME280;67994;59.334;13.528;2024-02-15T01:42:01;101200.0;;;4.6;77.7
78679;BME280;67994;59.334;13.528;2024-02-15T01:43:01;101200.0;;;4.6;77.6
78679;BME280;67994;59.334;13.528;2024-02-15T01:44:01;101200.0;;;4.7;77.5
78679;BME280;67994;59.334;13.528;2024-02-15T01:45:01;101200.0;;;4.6;77.6
78679;BME280;67994;59.334;13.528;2024-02-15T01:46:01;101200.0;;;4.7;77.4
78679;BME280;67994;59.334;13.528;2024-02-15T01:47:00;101200.0;;;4.7;77.3
78679;BME280;67994;59.334;13.528;2024-02-15T01:48:01;101200.0;;;4.6;77.5
78679;BME280;67994;59.334;13.528;2024-02-15T01:49:01;101200.0;;;4.4;78.4
78679;BME280;67994;59.334;13.528;2024-02-15T01:50:01;101200.0;;;4.3;78.8
78679;BME280;67994;59.334;13.528;2024-02-15T01:51:01;101200.0;;;4.2;79.1
78679;BME280;67994;59.334;13.528;2024-02-15T01:52:02;101200.0;;;4.3;79.0
78679;BME280;67994;59.334;13.528;2024-02-15T01:53:04;101200.0;;;4.4;78.6
78679;BME280;67994;59.334;13.528;2024-02-15T01:54:01;101200.0;;;4.5;78.3
78679;BME280;67994;59.334;13.528;2024-02-15T01:55:02;101200.0;;;4.4;78.5
78679;BME280;67994;59.334;13.528;2024-02-15T01:56:01;101200.0;;;4.6;77.9
78679;BME280;67994;59.334;13.528;2024-02-15T01:57:01;101200.0;;;4.6;78.0
78679;BME280;67994;59.334;13.528;2024-02-15T01:58:01;101200.0;;;4.7;77.6
78679;BME280;67994;59.334;13.528;2024-02-15T01:59:01;101200.0;;;4.6;77.8
78679;BME280;67994;59.334;13.528;2024-02-15T02:00:01;101200.0;;;4.6;77.8
78679;BME280;67994;59.334;13.528;2024-02-15T02:01:01;101200.0;;;4.7;77.6
78679;BME280;67994;59.334;13.528;2024-02-15T02:02:02;101200.0;;;4.2;78.6
78679;BME280;67994;59.334;13.528;2024-02-15T02:03:02;101200.0;;;4.2;79.1
78679;BME280;67994;59.334;13.528;2024-02-15T02:04:00;101200.0;;;4.2;79.1
78679;BME280;67994;59.334;13.528;2024-02-15T02:05:02;101200.0;;;4.5;78.3
78679;BME280;67994;59.334;13.528;2024-02-15T02:06:00;101200.0;;;4.5;78.3
78679;BME280;67994;59.334;13.528;2024-02-15T02:07:01;101200.0;;;4.2;78.9
78679;BME280;67994;59.334;13.528;2024-02-15T02:08:00;101200.0;;;4.5;78.6
78679;BME280;67994;59.334;13.528;2024-02-15T02:09:00;101200.0;;;4.4;78.6
78679;BME280;67994;59.334;13.528;2024-02-15T02:10:00;101200.0;;;4.5;78.3
78679;BME280;67994;59.334;13.528;2024-02-15T02:11:00;101200.0;;;4.5;78.3
78679;BME280;67994;59.334;13.528;2024-02-15T02:12:00;101200.0;;;4.6;77.9
78679;BME280;67994;59.334;13.528;2024-02-15T02:13:00;101200.0;;;4.7;77.5
78679;BME280;67994;59.334;13.528;2024-02-15T02:14:00;101200.0;;;4.8;77.0
78679;BME280;67994;59.334;13.528;2024-02-15T02:15:01;101200.0;;;4.7;77.4
78679;BME280;67994;59.334;13.528;2024-02-15T02:16:01;101200.0;;;4.9;76.8
78679;BME280;67994;59.334;13.528;2024-02-15T02:17:11;101200.0;;;5.0;76.3
78679;BME280;67994;59.334;13.528;2024-02-15T02:18:01;101200.0;;;5.1;76.1
78679;BME280;67994;59.334;13.528;2024-02-15T02:19:01;101200.0;;;5.0;76.2
78679;BME280;67994;59.334;13.528;2024-02-15T02:20:01;101200.0;;;5.0;76.3
78679;BME280;67994;59.334;13.528;2024-02-15T02:21:00;101200.0;;;4.9;76.4
78679;BME280;67994;59.334;13.528;2024-02-15T02:22:00;101200.0;;;4.9;76.5
78679;BME280;67994;59.334;13.528;2024-02-15T02:23:05;101200.0;;;5.0;76.5
78679;BME280;67994;59.334;13.528;2024-02-15T02:24:02;101200.0;;;4.8;77.1
78679;BME280;67994;59.334;13.528;2024-02-15T02:25:02;101200.0;;;4.9;76.9
78679;BME280;67994;59.334;13.528;2024-02-15T02:26:01;101200.0;;;4.9;76.6
78679;BME280;67994;59.334;13.528;2024-02-15T02:27:01;101200.0;;;4.9;76.6
78679;BME280;67994;59.334;13.528;2024-02-15T02:28:01;101200.0;;;4.9;76.5
78679;BME280;67994;59.334;13.528;2024-02-15T02:29:00;101100.0;;;4.9;76.6
78679;BME280;67994;59.334;13.528;2024-02-15T02:30:02;101100.0;;;4.6;78.0
78679;BME280;67994;59.334;13.528;2024-02-15T02:31:00;101100.0;;;4.6;77.9
78679;BME280;67994;59.334;13.528;2024-02-15T02:32:01;101100.0;;;4.3;78.7
78679;BME280;67994;59.334;13.528;2024-02-15T02:33:01;101200.0;;;4.2;79.2
78679;BME280;67994;59.334;13.528;2024-02-15T02:34:01;101200.0;;;4.2;79.2
78679;BME280;67994;59.334;13.528;2024-02-15T02:35:01;101200.0;;;4.1;79.2
78679;BME280;67994;59.334;13.528;2024-02-15T02:36:01;101200.0;;;4.1;79.8
78679;BME280;67994;59.334;13.528;2024-02-15T02:37:00;101200.0;;;4.1;79.9
78679;BME280;67994;59.334;13.528;2024-02-15T02:38:02;101200.0;;;4.1;80.0
78679;BME280;67994;59.334;13.528;2024-02-15T02:39:01;101200.0;;;4.2;79.7
78679;BME280;67994;59.334;13.528;2024-02-15T02:40:01;101200.0;;;4.6;78.7
78679;BME280;67994;59.334;13.528;2024-02-15T02:41:00;101200.0;;;4.4;78.8
78679;BME280;67994;59.334;13.528;2024-02-15T02:42:01;101200.0;;;4.4;78.8
78679;BME280;67994;59.334;13.528;2024-02-15T02:43:01;101200.0;;;4.3;79.2
78679;BME280;67994;59.334;13.528;2024-02-15T02:44:01;101200.0;;;4.3;79.2
78679;BME280;67994;59.334;13.528;2024-02-15T02:45:01;101100.0;;;4.6;78.0
78679;BME280;67994;59.334;13.528;2024-02-15T02:46:01;101200.0;;;4.7;77.8
78679;BME280;67994;59.334;13.528;2024-02-15T02:47:01;101200.0;;;4.9;77.0
78679;BME280;67994;59.334;13.528;2024-02-15T02:48:01;101200.0;;;4.9;77.0
78679;BME280;67994;59.334;13.528;2024-02-15T02:49:01;101200.0;;;4.7;77.6
78679;BME280;67994;59.334;13.528;2024-02-15T02:50:01;101200.0;;;4.5;78.0
78679;BME280;67994;59.334;13.528;2024-02-15T02:51:01;101100.0;;;4.4;78.3
78679;BME280;67994;59.334;13.528;2024-02-15T02:52:01;101200.0;;;4.3;79.0
78679;BME280;67994;59.334;13.528;2024-02-15T02:53:01;101200.0;;;4.3;79.0
78679;BME280;67994;59.334;13.528;2024-02-15T02:54:01;101200.0;;;4.4;78.7
78679;BME280;67994;59.334;13.528;2024-02-15T02:55:01;101200.0;;;4.3;79.0
78679;BME280;67994;59.334;13.528;2024-02-15T02:56:01;101200.0;;;4.4;78.8
78679;BME280;67994;59.334;13.528;2024-02-15T02:57:01;101200.0;;;4.3;79.2
78679;BME280;67994;59.334;13.528;2024-02-15T02:58:01;101200.0;;;4.4;79.0
78679;BME280;67994;59.334;13.528;2024-02-15T02:59:00;101100.0;;;4.5;78.4
78679;BME280;67994;59.334;13.528;2024-02-15T03:00:01;101200.0;;;4.6;77.8
78679;BME280;67994;59.334;13.528;2024-02-15T03:01:01;101100.0;;;4.7;77.7
78679;BME280;67994;59.334;13.528;2024-02-15T03:02:01;101100.0;;;4.7;77.7
78679;BME280;67994;59.334;13.528;2024-02-15T03:03:00;101100.0;;;4.8;77.3
78679;BME280;67994;59.334;13.528;2024-02-15T03:04:00;101100.0;;;5.0;76.8
78679;BME280;67994;59.334;13.528;2024-02-15T03:05:02;101100.0;;;4.8;77.1
78679;BME280;67994;59.334;13.528;2024-02-15T03:06:01;101100.0;;;4.6;77.9
78679;BME280;67994;59.334;13.528;2024-02-15T03:07:00;101100.0;;;4.6;78.0
78679;BME280;67994;59.334;13.528;2024-02-15T03:08:00;101100.0;;;4.5;78.3
78679;BME280;67994;59.334;13.528;2024-02-15T03:09:01;101100.0;;;4.7;77.8
78679;BME280;67994;59.334;13.528;2024-02-15T03:10:01;101100.0;;;4.5;78.2
78679;BME280;67994;59.334;13.528;2024-02-15T03:11:01;101100.0;;;4.4;78.5
78679;BME280;67994;59.334;13.528;2024-02-15T03:12:00;101100.0;;;4.5;78.5
78679;BME280;67994;59.334;13.528;2024-02-15T03:13:00;101100.0;;;4.5;78.4
78679;BME280;67994;59.334;13.528;2024-02-15T03:14:00;101100.0;;;4.4;79.0
78679;BME280;67994;59.334;13.528;2024-02-15T03:15:01;101100.0;;;4.3;79.1
78679;BME280;67994;59.334;13.528;2024-02-15T03:16:01;101100.0;;;4.3;79.2
78679;BME280;67994;59.334;13.528;2024-02-15T03:17:01;101100.0;;;4.3;78.5
78679;BME280;67994;59.334;13.528;2024-02-15T03:18:01;101100.0;;;4.5;78.8
78679;BME280;67994;59.334;13.528;2024-02-15T03:19:00;101100.0;;;4.5;78.8
78679;BME280;67994;59.334;13.528;2024-02-15T03:20:01;101100.0;;;4.4;78.7
78679;BME280;67994;59.334;13.528;2024-02-15T03:21:01;101100.0;;;4.6;77.9
78679;BME280;67994;59.334;13.528;2024-02-15T03:22:00;101100.0;;;4.7;77.6
78679;BME280;67994;59.334;13.528;2024-02-15T03:23:01;101100.0;;;4.5;78.3
78679;BME280;67994;59.334;13.528;2024-02-15T03:24:01;101100.0;;;4.7;77.7
78679;BME280;67994;59.334;13.528;2024-02-15T03:25:01;101100.0;;;4.6;77.8
78679;BME280;67994;59.334;13.528;2024-02-15T03:26:02;101100.0;;;4.5;78.1
78679;BME280;67994;59.334;13.528;2024-02-15T03:27:00;101100.0;;;4.3;78.7
78679;BME280;67994;59.334;13.528;2024-02-15T03:28:01;101100.0;;;4.3;79.0
78679;BME280;67994;59.334;13.528;2024-02-15T03:29:00;101100.0;;;4.2;79.1
78679;BME280;67994;59.334;13.528;2024-02-15T03:30:00;101100.0;;;4.2;79.2
78679;BME280;67994;59.334;13.528;2024-02-15T03:31:00;101100.0;;;4.2;79.3
78679;BME280;67994;59.334;13.528;2024-02-15T03:32:03;101100.0;;;4.2;79.2
78679;BME280;67994;59.334;13.528;2024-02-15T03:33:00;101100.0;;;4.1;79.5
78679;BME280;67994;59.334;13.528;2024-02-15T03:34:00;101100.0;;;4.3;79.0
78679;BME280;67994;59.334;13.528;2024-02-15T03:35:00;101100.0;;;4.5;78.2
78679;BME280;67994;59.334;13.528;2024-02-15T03:36:00;101100.0;;;4.5;78.2
78679;BME280;67994;59.334;13.528;2024-02-15T03:37:00;101100.0;;;4.7;77.6
78679;BME280;67994;59.334;13.528;2024-02-15T03:38:00;101100.0;;;4.7;77.6
78679;BME280;67994;59.334;13.528;2024-02-15T03:39:00;101100.0;;;4.4;78.4
78679;BME280;67994;59.334;13.528;2024-02-15T03:40:00;101100.0;;;4.5;78.1
78679;BME280;67994;59.334;13.528;2024-02-15T03:41:00;101100.0;;;4.2;79.0
78679;BME280;67994;59.334;13.528;2024-02-15T03:42:00;101100.0;;;4.4;78.7
78679;BME280;67994;59.334;13.528;2024-02-15T03:43:00;101100.0;;;4.2;78.8
78679;BME280;67994;59.334;13.528;2024-02-15T03:44:00;101100.0;;;4.1;79.5
78679;BME280;67994;59.334;13.528;2024-02-15T03:45:00;101100.0;;;4.1;79.5
78679;BME280;67994;59.334;13.528;2024-02-15T03:46:00;101100.0;;;4.1;79.5
78679;BME280;67994;59.334;13.528;2024-02-15T03:47:00;101100.0;;;4.1;79.6
78679;BME280;67994;59.334;13.528;2024-02-15T03:48:04;101100.0;;;4.2;79.3
78679;BME280;67994;59.334;13.528;2024-02-15T03:49:00;101100.0;;;4.0;79.8
78679;BME280;67994;59.334;13.528;2024-02-15T03:50:00;101100.0;;;4.2;79.4
78679;BME280;67994;59.334;13.528;2024-02-15T03:51:00;101100.0;;;4.2;79.3
78679;BME280;67994;59.334;13.528;2024-02-15T03:52:00;101100.0;;;4.1;80.1
78679;BME280;67994;59.334;13.528;2024-02-15T03:53:01;101100.0;;;3.8;80.3
78679;BME280;67994;59.334;13.528;2024-02-15T03:54:00;101200.0;;;3.8;80.6
78679;BME280;67994;59.334;13.528;2024-02-15T03:55:00;101200.0;;;3.8;80.9
78679;BME280;67994;59.334;13.528;2024-02-15T03:56:00;101200.0;;;3.7;81.2
78679;BME280;67994;59.334;13.528;2024-02-15T03:57:00;101200.0;;;3.7;81.1
78679;BME280;67994;59.334;13.528;2024-02-15T03:58:00;101200.0;;;3.8;80.9
78679;BME280;67994;59.334;13.528;2024-02-15T03:59:00;101200.0;;;4.0;80.1
78679;BME280;67994;59.334;13.528;2024-02-15T04:00:00;101200.0;;;4.0;80.2
78679;BME280;67994;59.334;13.528;2024-02-15T04:01:00;101200.0;;;3.9;80.6
78679;BME280;67994;59.334;13.528;2024-02-15T04:02:00;101200.0;;;3.8;80.8
78679;BME280;67994;59.334;13.528;2024-02-15T04:03:00;101200.0;;;3.9;80.4
78679;BME280;67994;59.334;13.528;2024-02-15T04:04:03;101200.0;;;4.0;80.1
78679;BME280;67994;59.334;13.528;2024-02-15T04:05:00;101200.0;;;4.0;80.2
78679;BME280;67994;59.334;13.528;2024-02-15T04:06:00;101200.0;;;4.1;79.7
78679;BME280;67994;59.334;13.528;2024-02-15T04:07:00;101200.0;;;4.1;79.6
78679;BME280;67994;59.334;13.528;2024-02-15T04:08:00;101200.0;;;4.0;80.1
78679;BME280;67994;59.334;13.528;2024-02-15T04:09:01;101200.0;;;4.0;80.2
78679;BME280;67994;59.334;13.528;2024-02-15T04:10:00;101200.0;;;3.9;80.4
78679;BME280;67994;59.334;13.528;2024-02-15T04:11:00;101200.0;;;3.8;80.9
78679;BME280;67994;59.334;13.528;2024-02-15T04:12:00;101200.0;;;3.7;81.0
78679;BME280;67994;59.334;13.528;2024-02-15T04:13:00;101200.0;;;3.6;81.4
78679;BME280;67994;59.334;13.528;2024-02-15T04:14:00;101200.0;;;4.0;80.4
78679;BME280;67994;59.334;13.528;2024-02-15T04:15:00;101200.0;;;4.1;80.0
78679;BME280;67994;59.334;13.528;2024-02-15T04:16:00;101200.0;;;4.1;79.8
78679;BME280;67994;59.334;13.528;2024-02-15T04:17:00;101200.0;;;3.8;80.1
78679;BME280;67994;59.334;13.528;2024-02-15T04:18:00;101200.0;;;4.1;80.4
78679;BME280;67994;59.334;13.528;2024-02-15T04:19:00;101200.0;;;4.1;80.0
78679;BME280;67994;59.334;13.528;2024-02-15T04:20:03;101200.0;;;4.3;79.4
78679;BME280;67994;59.334;13.528;2024-02-15T04:21:00;101200.0;;;4.3;78.9
78679;BME280;67994;59.334;13.528;2024-02-15T04:22:00;101200.0;;;4.1;78.8
78679;BME280;67994;59.334;13.528;2024-02-15T04:23:00;101200.0;;;4.1;79.4
78679;BME280;67994;59.334;13.528;2024-02-15T04:24:00;101200.0;;;4.0;80.1
78679;BME280;67994;59.334;13.528;2024-02-15T04:25:02;101200.0;;;3.8;80.3
78679;BME280;67994;59.334;13.528;2024-02-15T04:26:00;101200.0;;;3.7;80.8
78679;BME280;67994;59.334;13.528;2024-02-15T04:27:00;101200.0;;;3.8;80.6
78679;BME280;67994;59.334;13.528;2024-02-15T04:28:00;101200.0;;;4.0;80.6
78679;BME280;67994;59.334;13.528;2024-02-15T04:29:00;101200.0;;;4.0;79.8
78679;BME280;67994;59.334;13.528;2024-02-15T04:30:00;101200.0;;;4.1;79.6
78679;BME280;67994;59.334;13.528;2024-02-15T04:31:00;101200.0;;;4.3;78.8
78679;BME280;67994;59.334;13.528;2024-02-15T04:32:00;101200.0;;;4.4;78.7
78679;BME280;67994;59.334;13.528;2024-02-15T04:33:00;101200.0;;;4.2;79.2
78679;BME280;67994;59.334;13.528;2024-02-15T04:34:00;101200.0;;;4.0;79.9
78679;BME280;67994;59.334;13.528;2024-02-15T04:35:00;101200.0;;;3.9;80.2
78679;BME280;67994;59.334;13.528;2024-02-15T04:36:00;101200.0;;;3.9;80.1
78679;BME280;67994;59.334;13.528;2024-02-15T04:37:00;101200.0;;;3.8;80.5
78679;BME280;67994;59.334;13.528;2024-02-15T04:38:00;101200.0;;;4.0;80.0
78679;BME280;67994;59.334;13.528;2024-02-15T04:39:00;101200.0;;;4.0;79.5
78679;BME280;67994;59.334;13.528;2024-02-15T04:40:00;101200.0;;;4.2;79.1
78679;BME280;67994;59.334;13.528;2024-02-15T04:41:03;101200.0;;;4.1;79.5
78679;BME280;67994;59.334;13.528;2024-02-15T04:42:00;101200.0;;;4.0;79.7
78679;BME280;67994;59.334;13.528;2024-02-15T04:43:00;101200.0;;;4.1;79.5
78679;BME280;67994;59.334;13.528;2024-02-15T04:44:00;101200.0;;;4.1;79.5
78679;BME280;67994;59.334;13.528;2024-02-15T04:45:00;101200.0;;;3.8;79.5
78679;BME280;67994;59.334;13.528;2024-02-15T04:46:01;101200.0;;;3.8;80.5
78679;BME280;67994;59.334;13.528;2024-02-15T04:47:01;101200.0;;;3.7;80.8
78679;BME280;67994;59.334;13.528;2024-02-15T04:48:00;101200.0;;;3.5;81.0
78679;BME280;67994;59.334;13.528;2024-02-15T04:49:00;101200.0;;;3.6;81.1
78679;BME280;67994;59.334;13.528;2024-02-15T04:50:00;101200.0;;;3.8;81.1
78679;BME280;67994;59.334;13.528;2024-02-15T04:51:00;101200.0;;;3.8;80.2
78679;BME280;67994;59.334;13.528;2024-02-15T04:52:00;101200.0;;;4.1;79.7
78679;BME280;67994;59.334;13.528;2024-02-15T04:53:00;101200.0;;;4.1;79.4
78679;BME280;67994;59.334;13.528;2024-02-15T04:54:00;101200.0;;;4.2;79.4
78679;BME280;67994;59.334;13.528;2024-02-15T04:55:00;101200.0;;;4.3;78.7
78679;BME280;67994;59.334;13.528;2024-02-15T04:56:00;101200.0;;;4.5;78.4
78679;BME280;67994;59.334;13.528;2024-02-15T04:57:03;101200.0;;;4.2;79.3
78679;BME280;67994;59.334;13.528;2024-02-15T04:58:00;101200.0;;;3.9;80.0
78679;BME280;67994;59.334;13.528;2024-02-15T04:59:00;101200.0;;;3.7;80.9
78679;BME280;67994;59.334;13.528;2024-02-15T05:00:00;101200.0;;;3.8;80.2
78679;BME280;67994;59.334;13.528;2024-02-15T05:01:00;101200.0;;;3.6;80.2
78679;BME280;67994;59.334;13.528;2024-02-15T05:02:01;101200.0;;;3.9;80.3
78679;BME280;67994;59.334;13.528;2024-02-15T05:03:00;101200.0;;;3.9;80.1
78679;BME280;67994;59.334;13.528;2024-02-15T05:04:00;101200.0;;;4.0;79.7
78679;BME280;67994;59.334;13.528;2024-02-15T05:05:00;101200.0;;;4.1;79.4
78679;BME280;67994;59.334;13.528;2024-02-15T05:06:00;101200.0;;;4.2;78.8
78679;BME280;67994;59.334;13.528;2024-02-15T05:07:00;101200.0;;;4.3;78.8
78679;BME280;67994;59.334;13.528;2024-02-15T05:08:00;101200.0;;;3.8;80.1
78679;BME280;67994;59.334;13.528;2024-02-15T05:09:00;101200.0;;;3.9;80.0
78679;BME280;67994;59.334;13.528;2024-02-15T05:10:00;101200.0;;;3.8;80.2
78679;BME280;67994;59.334;13.528;2024-02-15T05:11:00;101200.0;;;3.8;80.3
78679;BME280;67994;59.334;13.528;2024-02-15T05:12:01;101200.0;;;3.8;80.5
78679;BME280;67994;59.334;13.528;2024-02-15T05:13:00;101200.0;;;3.6;81.1
78679;BME280;67994;59.334;13.528;2024-02-15T05:14:01;101200.0;;;3.5;81.4
78679;BME280;67994;59.334;13.528;2024-02-15T05:15:00;101200.0;;;3.8;80.8
78679;BME280;67994;59.334;13.528;2024-02-15T05:16:00;101200.0;;;3.8;80.8
78679;BME280;67994;59.334;13.528;2024-02-15T05:17:00;101200.0;;;3.6;81.2
78679;BME280;67994;59.334;13.528;2024-02-15T05:18:02;101200.0;;;3.7;81.0
78679;BME280;67994;59.334;13.528;2024-02-15T05:19:00;101200.0;;;3.8;80.7
78679;BME280;67994;59.334;13.528;2024-02-15T05:20:00;101200.0;;;3.6;81.1
78679;BME280;67994;59.334;13.528;2024-02-15T05:21:00;101200.0;;;3.7;81.1
78679;BME280;67994;59.334;13.528;2024-02-15T05:22:00;101200.0;;;3.7;81.0
78679;BME280;67994;59.334;13.528;2024-02-15T05:23:00;101200.0;;;3.6;81.3
78679;BME280;67994;59.334;13.528;2024-02-15T05:24:00;101200.0;;;3.6;81.3
78679;BME280;67994;59.334;13.528;2024-02-15T05:25:00;101200.0;;;3.5;81.6
78679;BME280;67994;59.334;13.528;2024-02-15T05:26:00;101200.0;;;3.3;82.1